createdAt,value
2023-03-24T00:01:25.714Z,35.97
2023-03-24T00:03:53.512Z,34.50
2023-03-24T00:06:23.003Z,44.05
2023-03-24T00:08:51.356Z,56.33
2023-03-24T00:11:21.427Z,48.63
2023-03-24T00:13:50.593Z,38.15
2023-03-24T00:16:19.910Z,53.78
2023-03-24T00:18:54.024Z,41.42
2023-03-24T00:21:24.991Z,40.38
2023-03-24T00:23:55.406Z,35.95
2023-03-24T00:26:25.435Z,37.20
2023-03-24T00:28:55.602Z,40.00
2023-03-24T00:31:24.658Z,39.42
2023-03-24T00:33:53.876Z,31.90
2023-03-24T00:36:24.561Z,36.83
2023-03-24T00:38:53.860Z,31.25
2023-03-24T00:41:25.083Z,39.00
2023-03-24T00:43:56.755Z,33.83
2023-03-24T00:46:28.338Z,38.92
2023-03-24T00:49:12.057Z,39.13
2023-03-24T00:51:41.845Z,34.30
2023-03-24T00:54:11.460Z,37.80
2023-03-24T00:56:40.972Z,44.33
2023-03-24T00:59:10.658Z,42.38
2023-03-24T01:01:41.262Z,47.75
2023-03-24T01:04:10.657Z,41.42
2023-03-24T01:06:39.499Z,48.90
2023-03-24T01:09:08.251Z,56.22
2023-03-24T01:11:41.512Z,58.90
2023-03-24T01:16:38.409Z,65.45
2023-03-24T01:19:08.736Z,73.03
2023-03-24T01:21:38.739Z,69.57
2023-03-24T01:24:06.565Z,70.35
2023-03-24T01:26:35.438Z,69.90
2023-03-24T01:29:03.241Z,68.22
2023-03-24T01:31:31.179Z,64.07
2023-03-24T01:33:59.232Z,78.20
2023-03-24T01:36:27.338Z,69.28
2023-03-24T01:38:55.542Z,76.22
2023-03-24T01:41:23.600Z,70.28
2023-03-24T01:43:51.716Z,70.82
2023-03-24T01:46:21.374Z,71.75
2023-03-24T01:49:01.790Z,70.22
2023-03-24T01:51:40.412Z,66.95
2023-03-24T01:54:16.268Z,66.80
2023-03-24T01:56:50.916Z,77.28
2023-03-24T01:59:23.671Z,67.15
2023-03-24T02:02:10.269Z,65.13
2023-03-24T02:04:54.210Z,78.68
2023-03-24T02:07:53.172Z,70.30
2023-03-24T02:10:23.320Z,69.68
2023-03-24T02:12:51.404Z,69.07
2023-03-24T02:15:20.291Z,80.00
2023-03-24T02:17:54.878Z,70.55
2023-03-24T02:20:28.740Z,65.95
2023-03-24T02:23:24.176Z,72.32
2023-03-24T02:26:10.745Z,75.90
2023-03-24T02:28:53.984Z,70.57
2023-03-24T02:31:56.956Z,73.43
2023-03-24T02:34:55.236Z,71.85
2023-03-24T02:37:45.336Z,70.57
2023-03-24T02:40:24.583Z,66.78
2023-03-24T02:43:29.826Z,75.28
2023-03-24T02:46:28.878Z,69.28
2023-03-24T02:49:16.241Z,67.22
2023-03-24T02:51:54.251Z,64.95
2023-03-24T02:54:33.295Z,65.55
2023-03-24T02:57:09.232Z,64.00
2023-03-24T03:00:36.101Z,71.72
2023-03-24T03:03:12.190Z,61.30
2023-03-24T03:05:48.295Z,53.40
2023-03-24T03:08:18.351Z,58.42
2023-03-24T03:10:48.835Z,68.78
2023-03-24T03:13:24.955Z,63.60
2023-03-24T03:15:56.797Z,59.05
2023-03-24T03:18:33.305Z,65.63
2023-03-24T03:21:08.020Z,54.72
2023-03-24T03:23:44.765Z,58.58
2023-03-24T03:26:17.526Z,62.85
2023-03-24T03:28:57.982Z,61.47
2023-03-24T03:31:35.297Z,58.38
2023-03-24T03:34:19.256Z,50.00
2023-03-24T03:36:55.057Z,55.28
2023-03-24T03:39:29.770Z,45.53
2023-03-24T03:42:00.712Z,41.17
2023-03-24T03:44:28.905Z,44.25
2023-03-24T03:46:56.522Z,53.00
2023-03-24T03:49:34.288Z,45.80
2023-03-24T03:52:02.278Z,43.30
2023-03-24T03:54:31.982Z,45.15
2023-03-24T03:57:00.464Z,46.22
2023-03-24T03:59:35.498Z,48.00
2023-03-24T04:02:20.042Z,48.75
2023-03-24T04:05:05.969Z,45.67
2023-03-24T04:08:31.501Z,45.30
2023-03-24T04:11:41.504Z,38.65
2023-03-24T04:14:11.843Z,45.78
2023-03-24T04:17:06.277Z,40.05
2023-03-24T04:19:48.006Z,43.70
2023-03-24T04:22:38.490Z,45.38
2023-03-24T04:25:50.090Z,48.45
2023-03-24T04:28:22.339Z,49.35
2023-03-24T04:30:58.337Z,43.13
2023-03-24T04:33:45.744Z,46.08
2023-03-24T04:36:27.518Z,43.90
2023-03-24T04:39:28.365Z,43.75
2023-03-24T04:42:02.309Z,53.72
2023-03-24T04:44:33.296Z,46.60
2023-03-24T04:47:23.079Z,45.05
2023-03-24T04:50:31.120Z,52.35
2023-03-24T04:53:01.848Z,43.00
2023-03-24T04:55:48.367Z,43.05
2023-03-24T04:58:19.662Z,47.15
2023-03-24T05:00:48.454Z,47.08
2023-03-24T05:03:18.897Z,44.08
2023-03-24T05:05:49.602Z,46.03
2023-03-24T05:08:18.993Z,45.75
2023-03-24T05:10:48.242Z,45.45
2023-03-24T05:13:17.101Z,47.20
2023-03-24T05:15:53.978Z,50.67
2023-03-24T05:18:43.591Z,47.40
2023-03-24T05:21:12.205Z,50.63
2023-03-24T05:23:40.687Z,42.42
2023-03-24T05:26:10.362Z,53.85
2023-03-24T05:28:58.509Z,48.38
2023-03-24T05:31:26.175Z,49.80
2023-03-24T05:34:03.562Z,55.88
2023-03-24T05:36:34.537Z,44.88
2023-03-24T05:39:02.813Z,49.85
2023-03-24T05:41:42.501Z,51.38
2023-03-24T05:44:10.094Z,55.30
2023-03-24T05:46:38.357Z,63.85
2023-03-24T05:49:06.101Z,62.53
2023-03-24T05:51:37.884Z,66.03
2023-03-24T05:54:08.687Z,65.75
2023-03-24T05:56:48.295Z,66.25
2023-03-24T05:59:15.982Z,70.20
2023-03-24T06:02:12.600Z,63.40
2023-03-24T06:04:57.842Z,68.03
2023-03-24T06:07:26.987Z,65.47
2023-03-24T06:09:58.390Z,63.65
2023-03-24T06:12:28.071Z,82.63
2023-03-24T06:15:05.167Z,87.45
2023-03-24T06:17:34.211Z,74.80
2023-03-24T06:20:15.680Z,77.45
2023-03-24T06:23:07.205Z,79.70
2023-03-24T06:25:47.713Z,78.85
2023-03-24T06:28:26.153Z,76.05
2023-03-24T06:30:59.034Z,94.95
2023-03-24T06:33:34.405Z,94.72
2023-03-24T06:36:02.837Z,100.40
2023-03-24T06:38:32.166Z,93.03
2023-03-24T06:41:01.375Z,92.47
2023-03-24T06:43:30.215Z,100.15
2023-03-24T06:45:59.332Z,94.22
2023-03-24T06:48:28.912Z,90.70
2023-03-24T06:51:03.475Z,96.65
2023-03-24T06:53:31.604Z,96.65
2023-03-24T06:55:59.680Z,96.30
2023-03-24T06:58:34.666Z,104.88
2023-03-24T07:01:07.583Z,95.10
2023-03-24T07:03:36.900Z,86.18
2023-03-24T07:06:24.830Z,87.40
2023-03-24T07:08:56.892Z,89.70
2023-03-24T07:11:28.633Z,100.85
2023-03-24T07:13:59.975Z,87.82
2023-03-24T07:16:29.684Z,81.03
2023-03-24T07:19:19.527Z,84.47
2023-03-24T07:21:51.974Z,81.10
2023-03-24T07:24:30.565Z,75.40
2023-03-24T07:27:09.257Z,78.68
2023-03-24T07:29:37.586Z,85.53
2023-03-24T07:32:15.555Z,70.55
2023-03-24T07:34:45.889Z,89.72
2023-03-24T07:37:13.872Z,81.55
2023-03-24T07:39:41.539Z,85.88
2023-03-24T07:42:11.798Z,80.60
2023-03-24T07:44:56.281Z,100.68
2023-03-24T07:47:27.016Z,81.70
2023-03-24T07:49:57.485Z,78.90
2023-03-24T07:52:25.242Z,80.00
2023-03-24T07:54:55.902Z,97.50
2023-03-24T07:57:50.260Z,86.17
2023-03-24T08:00:19.929Z,87.28
2023-03-24T08:03:00.193Z,89.40
2023-03-24T08:05:48.803Z,88.50
2023-03-24T08:08:22.294Z,87.10
2023-03-24T08:10:51.082Z,81.03
2023-03-24T08:13:19.429Z,86.03
2023-03-24T08:15:47.119Z,91.57
2023-03-24T08:18:16.256Z,88.60
2023-03-24T08:20:44.224Z,96.65
2023-03-24T08:23:12.771Z,93.50
2023-03-24T08:25:40.404Z,88.15
2023-03-24T08:28:08.530Z,91.78
2023-03-24T08:30:36.392Z,98.07
2023-03-24T08:33:05.003Z,91.28
2023-03-24T08:35:35.058Z,90.63
2023-03-24T08:38:06.697Z,94.13
2023-03-24T08:40:37.252Z,93.63
2023-03-24T08:43:11.284Z,92.90
2023-03-24T08:45:38.934Z,85.05
2023-03-24T08:48:08.166Z,85.75
2023-03-24T08:50:39.952Z,87.32
2023-03-24T08:53:09.594Z,91.22
2023-03-24T08:55:41.749Z,92.38
2023-03-24T08:58:17.758Z,98.07
2023-03-24T09:00:47.692Z,91.50
2023-03-24T09:03:22.524Z,91.38
2023-03-24T09:05:51.014Z,82.88
2023-03-24T09:08:20.172Z,79.90
2023-03-24T09:10:47.881Z,75.80
2023-03-24T09:13:16.717Z,75.30
2023-03-24T09:15:52.906Z,65.47
2023-03-24T09:18:22.224Z,67.20
2023-03-24T09:20:51.187Z,54.22
2023-03-24T09:23:20.306Z,55.40
2023-03-24T09:25:53.877Z,52.70
2023-03-24T09:28:23.147Z,50.63
2023-03-24T09:30:51.335Z,57.22
2023-03-24T09:33:19.709Z,52.45
2023-03-24T09:35:56.014Z,51.13
2023-03-24T09:38:25.678Z,53.40
2023-03-24T09:41:03.034Z,53.58
2023-03-24T09:43:41.041Z,49.05
2023-03-24T09:46:20.463Z,54.05
2023-03-24T09:48:59.829Z,49.38
2023-03-24T09:51:30.121Z,49.95
2023-03-24T09:54:19.692Z,54.25
2023-03-24T09:56:51.285Z,44.70
2023-03-24T09:59:21.374Z,38.15
2023-03-24T10:01:49.822Z,41.00
2023-03-24T10:04:24.529Z,42.55
2023-03-24T10:07:03.919Z,45.67
2023-03-24T10:09:35.080Z,42.85
2023-03-24T10:12:21.224Z,35.63
2023-03-24T10:15:10.023Z,14.57
2023-03-24T10:18:08.202Z,8.32
2023-03-24T10:20:55.265Z,5.30
2023-03-24T10:23:37.948Z,7.65
2023-03-24T10:26:32.491Z,6.78
2023-03-24T10:29:24.993Z,11.57
2023-03-24T10:31:59.676Z,6.15
2023-03-24T10:34:33.857Z,9.88
2023-03-24T10:37:04.328Z,5.20
2023-03-24T10:39:44.282Z,7.15
2023-03-24T10:42:21.879Z,10.82
2023-03-24T10:44:51.524Z,7.22
2023-03-24T10:47:26.380Z,6.72
2023-03-24T10:50:14.331Z,10.25
2023-03-24T10:52:48.924Z,5.03
2023-03-24T10:55:19.771Z,4.53
2023-03-24T10:57:51.836Z,5.65
2023-03-24T11:00:29.718Z,6.90
2023-03-24T11:03:02.034Z,5.80
2023-03-24T11:05:36.872Z,7.93
2023-03-24T11:08:38.731Z,6.03
2023-03-24T11:11:32.500Z,6.07
2023-03-24T11:14:04.598Z,9.07
2023-03-24T11:16:36.767Z,5.55
2023-03-24T11:19:06.975Z,5.80
2023-03-24T11:21:38.129Z,7.25
2023-03-24T11:24:15.721Z,5.22
2023-03-24T11:27:02.301Z,4.63
2023-03-24T11:29:33.187Z,6.93
2023-03-24T11:32:03.591Z,7.95
2023-03-24T11:34:42.315Z,6.22
2023-03-24T11:37:23.493Z,4.88
2023-03-24T11:40:12.547Z,5.68
2023-03-24T11:42:45.465Z,6.15
2023-03-24T11:47:58.954Z,4.00
2023-03-24T11:50:33.650Z,6.07
2023-03-24T11:53:11.938Z,7.85
2023-03-24T11:56:01.034Z,6.85
2023-03-24T11:58:55.139Z,6.20
2023-03-24T12:01:22.661Z,6.15
2023-03-24T12:03:51.256Z,7.40
2023-03-24T12:06:40.213Z,5.70
2023-03-24T12:09:34.955Z,6.43
2023-03-24T12:12:15.678Z,5.40
2023-03-24T12:14:44.198Z,13.85
2023-03-24T12:17:14.447Z,10.77
2023-03-24T12:19:42.129Z,4.10
2023-03-24T12:22:31.448Z,4.82
2023-03-24T12:25:11.664Z,9.85
2023-03-24T12:28:00.828Z,5.95
2023-03-24T12:30:44.490Z,5.28
2023-03-24T12:36:09.082Z,7.80
2023-03-24T12:39:06.905Z,8.00
2023-03-24T12:41:46.800Z,5.75
2023-03-24T12:44:20.567Z,10.45
2023-03-24T12:47:10.287Z,7.38
2023-03-24T12:50:02.664Z,9.35
2023-03-24T12:53:06.687Z,6.43
2023-03-24T12:55:44.961Z,8.77
2023-03-24T12:58:21.825Z,13.18
2023-03-24T13:01:21.396Z,8.63
2023-03-24T13:04:32.353Z,8.43
2023-03-24T13:07:07.382Z,7.22
2023-03-24T13:09:41.791Z,7.35
2023-03-24T13:12:21.822Z,8.32
2023-03-24T13:14:54.006Z,8.77
2023-03-24T13:17:39.066Z,10.27
2023-03-24T13:20:13.607Z,14.32
2023-03-24T13:22:42.921Z,9.50
2023-03-24T13:25:40.853Z,9.55
2023-03-24T13:28:13.529Z,8.93
2023-03-24T13:30:43.191Z,17.00
2023-03-24T13:33:26.724Z,9.55
2023-03-24T13:36:33.376Z,8.13
2023-03-24T13:39:07.030Z,11.07
2023-03-24T13:41:39.911Z,11.32
2023-03-24T13:44:19.781Z,11.15
2023-03-24T13:47:05.948Z,9.93
2023-03-24T13:49:34.337Z,7.68
2023-03-24T13:52:06.439Z,7.40
2023-03-24T13:54:37.988Z,8.27
2023-03-24T13:57:12.926Z,7.25
2023-03-24T14:00:02.248Z,10.07
2023-03-24T14:02:46.613Z,12.30
2023-03-24T14:05:26.547Z,7.70
2023-03-24T14:08:13.205Z,7.90
2023-03-24T14:10:45.732Z,8.07
2023-03-24T14:13:13.887Z,16.42
2023-03-24T14:15:46.410Z,5.93
2023-03-24T14:18:37.544Z,6.90
2023-03-24T14:21:07.854Z,7.93
2023-03-24T14:23:37.707Z,8.80
2023-03-24T14:26:21.601Z,9.35
2023-03-24T14:28:52.957Z,8.48
2023-03-24T14:31:29.871Z,9.05
2023-03-24T14:34:03.713Z,9.77
2023-03-24T14:36:41.182Z,6.97
2023-03-24T14:39:37.042Z,7.38
2023-03-24T14:42:28.780Z,12.02
2023-03-24T14:44:58.687Z,10.52
2023-03-24T14:47:32.100Z,7.03
2023-03-24T14:50:10.650Z,9.77
2023-03-24T14:52:51.270Z,9.10
2023-03-24T14:55:20.073Z,9.30
2023-03-24T14:58:04.454Z,7.72
2023-03-24T15:00:51.764Z,8.75
2023-03-24T15:03:41.535Z,8.45
2023-03-24T15:06:15.987Z,9.35
2023-03-24T15:08:52.858Z,7.72
2023-03-24T15:11:33.833Z,7.05
2023-03-24T15:14:05.365Z,8.60
2023-03-24T15:16:36.457Z,9.82
2023-03-24T15:19:25.394Z,13.82
2023-03-24T15:22:06.477Z,10.23
2023-03-24T15:24:37.663Z,8.48
2023-03-24T15:27:08.273Z,11.13
2023-03-24T15:29:42.151Z,10.70
2023-03-24T15:32:22.721Z,9.70
2023-03-24T15:34:56.663Z,10.23
2023-03-24T15:37:30.842Z,11.75
2023-03-24T15:40:08.995Z,8.30
2023-03-24T15:42:46.701Z,8.40
2023-03-24T15:45:30.000Z,7.75
2023-03-24T15:47:59.245Z,8.82
2023-03-24T15:50:38.860Z,12.35
2023-03-24T15:53:23.919Z,15.90
2023-03-24T15:56:06.499Z,7.78
2023-03-24T15:59:15.227Z,13.48
2023-03-24T16:01:45.530Z,11.52
2023-03-24T16:04:15.922Z,11.30
2023-03-24T16:06:53.862Z,11.60
2023-03-24T16:09:27.723Z,10.35
2023-03-24T16:11:56.566Z,14.07
2023-03-24T16:14:29.895Z,10.13
2023-03-24T16:17:00.871Z,9.05
2023-03-24T16:19:29.270Z,8.48
2023-03-24T16:21:57.941Z,12.38
2023-03-24T16:24:26.012Z,10.80
2023-03-24T16:26:54.347Z,9.57
2023-03-24T16:29:24.338Z,15.60
2023-03-24T16:31:56.072Z,13.68
2023-03-24T16:34:24.639Z,18.10
2023-03-24T16:36:54.650Z,15.60
2023-03-24T16:39:25.742Z,12.52
2023-03-24T16:41:53.781Z,9.70
2023-03-24T16:44:22.495Z,13.90
2023-03-24T16:46:53.894Z,13.88
2023-03-24T16:49:23.215Z,22.33
2023-03-24T16:51:53.153Z,13.07
2023-03-24T16:54:21.790Z,11.27
2023-03-24T16:56:50.041Z,9.27
2023-03-24T16:59:17.686Z,14.00
2023-03-24T17:01:46.366Z,10.32
2023-03-24T17:04:17.092Z,19.73
2023-03-24T17:06:52.911Z,15.48
2023-03-24T17:09:22.189Z,19.33
2023-03-24T17:11:56.056Z,12.25
2023-03-24T17:14:25.075Z,8.35
2023-03-24T17:16:53.790Z,8.68
2023-03-24T17:19:24.918Z,12.00
2023-03-24T17:22:02.336Z,11.60
2023-03-24T17:24:38.114Z,14.15
2023-03-24T17:27:13.572Z,10.70
2023-03-24T17:29:42.323Z,8.32
2023-03-24T17:32:11.794Z,12.60
2023-03-24T17:34:42.845Z,15.38
2023-03-24T17:37:11.341Z,9.77
2023-03-24T17:39:40.472Z,10.55
2023-03-24T17:42:08.622Z,10.00
2023-03-24T17:44:36.345Z,8.35
2023-03-24T17:47:05.006Z,8.75
2023-03-24T17:49:33.863Z,10.82
2023-03-24T17:52:01.967Z,12.73
2023-03-24T17:54:30.533Z,9.15
2023-03-24T17:56:59.040Z,11.10
2023-03-24T17:59:27.560Z,13.57
2023-03-24T18:01:55.718Z,21.00
2023-03-24T18:04:23.993Z,18.77
2023-03-24T18:06:51.833Z,23.92
2023-03-24T18:09:19.928Z,24.60
2023-03-24T18:11:47.979Z,22.73
2023-03-24T18:14:16.535Z,18.15
2023-03-24T18:16:45.580Z,16.33
2023-03-24T18:19:13.676Z,12.30
2023-03-24T18:21:42.755Z,17.42
2023-03-24T18:24:12.141Z,12.50
2023-03-24T18:26:40.676Z,10.45
2023-03-24T18:29:08.805Z,18.08
2023-03-24T18:31:37.234Z,13.88
2023-03-24T18:34:05.194Z,31.00
2023-03-24T18:36:32.946Z,22.50
2023-03-24T18:39:07.127Z,14.77
2023-03-24T18:41:39.913Z,13.70
2023-03-24T18:44:11.527Z,25.33
2023-03-24T18:46:40.413Z,12.75
2023-03-24T18:49:13.734Z,15.88
2023-03-24T18:51:42.318Z,10.43
2023-03-24T18:54:13.151Z,16.27
2023-03-24T18:56:41.924Z,12.98
2023-03-24T18:59:11.856Z,11.40
2023-03-24T19:01:40.145Z,19.70
2023-03-24T19:04:09.340Z,14.43
2023-03-24T19:06:37.326Z,10.10
2023-03-24T19:09:05.750Z,10.32
2023-03-24T19:11:33.936Z,14.32
2023-03-24T19:14:02.343Z,14.10
2023-03-24T19:16:31.160Z,10.90
2023-03-24T19:19:00.277Z,12.27
2023-03-24T19:21:28.184Z,16.88
2023-03-24T19:23:57.208Z,11.68
2023-03-24T19:26:26.162Z,11.23
2023-03-24T19:28:54.469Z,12.05
2023-03-24T19:31:23.139Z,14.48
2023-03-24T19:33:52.589Z,10.80
2023-03-24T19:36:20.466Z,14.73
2023-03-24T19:38:48.586Z,14.95
2023-03-24T19:41:16.805Z,9.30
2023-03-24T19:43:44.965Z,9.82
2023-03-24T19:46:13.784Z,13.60
2023-03-24T19:48:41.544Z,10.38
2023-03-24T19:51:09.231Z,16.17
2023-03-24T19:53:37.339Z,15.52
2023-03-24T19:56:06.810Z,11.20
2023-03-24T19:58:34.946Z,14.13
2023-03-24T20:01:03.498Z,12.93
2023-03-24T20:03:32.005Z,12.35
2023-03-24T20:06:05.132Z,10.68
2023-03-24T20:08:33.342Z,9.13
2023-03-24T20:11:03.700Z,17.92
2023-03-24T20:13:32.316Z,13.10
2023-03-24T20:15:59.997Z,12.57
2023-03-24T20:18:28.748Z,17.00
2023-03-24T20:20:59.873Z,12.00
2023-03-24T20:23:28.760Z,23.00
2023-03-24T20:25:59.932Z,21.08
2023-03-24T20:28:28.588Z,16.60
2023-03-24T20:31:01.840Z,14.98
2023-03-24T20:33:30.264Z,15.65
2023-03-24T20:35:59.474Z,16.92
2023-03-24T20:38:27.510Z,18.60
2023-03-24T20:41:05.242Z,13.40
2023-03-24T20:43:36.204Z,16.23
2023-03-24T20:46:07.762Z,15.98
2023-03-24T20:48:36.954Z,11.52
2023-03-24T20:51:05.975Z,13.55
2023-03-24T20:53:35.917Z,12.80
2023-03-24T20:56:06.874Z,18.00
2023-03-24T20:58:37.657Z,12.70
2023-03-24T21:01:09.929Z,14.55
2023-03-24T21:03:38.418Z,18.58
2023-03-24T21:06:10.335Z,17.65
2023-03-24T21:08:38.131Z,14.32
2023-03-24T21:11:06.293Z,13.02
2023-03-24T21:13:37.684Z,10.80
2023-03-24T21:16:08.488Z,14.20
2023-03-24T21:18:37.845Z,14.35
2023-03-24T21:21:06.872Z,12.63
2023-03-24T21:23:39.125Z,10.48
2023-03-24T21:26:18.025Z,17.52
2023-03-24T21:28:46.028Z,8.23
2023-03-24T21:31:21.589Z,9.27
2023-03-24T21:33:51.075Z,16.92
2023-03-24T21:36:20.862Z,14.25
2023-03-24T21:38:50.023Z,13.75
2023-03-24T21:41:19.729Z,13.95
2023-03-24T21:43:51.316Z,14.77
2023-03-24T21:46:21.892Z,12.63
2023-03-24T21:48:51.939Z,11.98
2023-03-24T21:51:34.445Z,9.40
2023-03-24T21:54:04.758Z,10.68
2023-03-24T21:56:34.545Z,11.07
2023-03-24T21:59:02.854Z,13.45
2023-03-24T22:01:34.106Z,11.40
2023-03-24T22:04:03.544Z,12.75
2023-03-24T22:06:37.782Z,10.57
2023-03-24T22:09:08.370Z,10.57
2023-03-24T22:11:42.587Z,7.50
2023-03-24T22:14:11.351Z,15.02
2023-03-24T22:16:39.812Z,7.05
2023-03-24T22:19:07.900Z,7.72
2023-03-24T22:21:36.357Z,9.48
2023-03-24T22:24:06.097Z,8.05
2023-03-24T22:26:34.724Z,19.55
2023-03-24T22:29:03.509Z,7.85
2023-03-24T22:31:31.719Z,9.15
2023-03-24T22:34:00.339Z,9.13
2023-03-24T22:36:28.436Z,8.10
2023-03-24T22:38:56.553Z,5.80
2023-03-24T22:41:25.133Z,6.63
2023-03-24T22:43:52.709Z,6.53
2023-03-24T22:46:22.360Z,9.88
2023-03-24T22:48:50.484Z,11.20
2023-03-24T22:51:19.598Z,6.95
2023-03-24T22:53:48.461Z,6.22
2023-03-24T22:56:17.087Z,6.47
2023-03-24T22:58:44.723Z,4.82
2023-03-24T23:01:12.479Z,7.53
2023-03-24T23:03:40.780Z,7.80
2023-03-24T23:06:11.092Z,5.88
2023-03-24T23:08:40.283Z,8.85
2023-03-24T23:11:09.115Z,6.13
2023-03-24T23:13:36.912Z,17.73
2023-03-24T23:16:05.753Z,7.05
2023-03-24T23:18:34.208Z,5.70
2023-03-24T23:21:07.891Z,5.13
2023-03-24T23:26:05.889Z,7.35
2023-03-24T23:28:34.811Z,8.77
2023-03-24T23:31:03.088Z,10.38
2023-03-24T23:33:30.874Z,8.98
2023-03-24T23:35:59.325Z,10.70
2023-03-24T23:38:27.590Z,16.00
2023-03-24T23:40:55.707Z,7.90
2023-03-24T23:43:23.875Z,10.63
2023-03-24T23:45:56.929Z,8.40
2023-03-24T23:48:25.658Z,8.85
2023-03-24T23:51:01.662Z,9.50
2023-03-24T23:53:30.802Z,9.82
2023-03-24T23:56:02.070Z,11.43
2023-03-24T23:58:33.562Z,7.00
